TimeCST,TemperatureF,Dew PointF,Humidity,Sea Level PressureIn,VisibilityMPH,Wind Direction,Wind SpeedMPH,Gust SpeedMPH,PrecipitationIn,Events,Conditions,WindDirDegrees,DateUTC
12:53 AM,62.1,57.9,86,30.09,6.0,South,11.5,-,N/A,,Overcast,180,2012-12-03 06:53:00
1:53 AM,62.1,57.9,86,30.09,7.0,SSW,10.4,-,N/A,,Overcast,200,2012-12-03 07:53:00
2:53 AM,62.1,57.9,86,30.09,7.0,South,10.4,-,N/A,,Overcast,180,2012-12-03 08:53:00
3:53 AM,62.1,57.9,86,30.08,7.0,South,9.2,-,N/A,,Overcast,180,2012-12-03 09:53:00
4:53 AM,63.0,57.9,84,30.08,7.0,SSW,9.2,-,N/A,,Overcast,200,2012-12-03 10:53:00
5:53 AM,60.1,57.0,90,30.08,6.0,South,8.1,-,N/A,,Mostly Cloudy,170,2012-12-03 11:53:00
6:53 AM,59.0,55.9,90,30.09,6.0,South,10.4,-,N/A,,Clear,180,2012-12-03 12:53:00
7:53 AM,60.1,55.9,86,30.09,6.0,South,10.4,-,N/A,,Clear,180,2012-12-03 13:53:00
8:53 AM,64.0,57.0,78,30.08,7.0,South,16.1,-,N/A,,Clear,190,2012-12-03 14:53:00
9:53 AM,66.9,57.9,73,30.08,8.0,SSW,19.6,26.5,N/A,,Clear,200,2012-12-03 15:53:00
10:53 AM,70.0,59.0,68,30.06,8.0,SSW,21.9,29.9,N/A,,Scattered Clouds,210,2012-12-03 16:53:00
11:53 AM,73.0,57.9,59,30.04,9.0,SSW,19.6,32.2,N/A,,Partly Cloudy,210,2012-12-03 17:53:00
12:53 PM,73.0,57.9,59,30.02,10.0,SSW,23.0,28.8,N/A,,Partly Cloudy,200,2012-12-03 18:53:00
1:53 PM,72.0,55.9,57,30.01,10.0,SSW,20.7,34.5,N/A,,Clear,210,2012-12-03 19:53:00
2:53 PM,72.0,55.0,55,30.00,10.0,SSW,26.5,34.5,N/A,,Clear,200,2012-12-03 20:53:00
3:53 PM,70.0,55.0,59,30.01,10.0,South,15.0,23.0,N/A,,Clear,190,2012-12-03 21:53:00
4:53 PM,66.9,55.0,66,30.01,10.0,South,17.3,-,N/A,,Clear,180,2012-12-03 22:53:00
5:53 PM,64.9,55.9,73,30.02,9.0,South,13.8,-,N/A,,Clear,190,2012-12-03 23:53:00
6:53 PM,64.0,55.9,75,30.02,9.0,South,10.4,-,N/A,,Scattered Clouds,180,2012-12-04 00:53:00
7:53 PM,60.1,55.0,83,30.02,7.0,South,8.1,-,N/A,,Clear,170,2012-12-04 01:53:00
8:53 PM,62.1,55.0,78,30.03,9.0,South,8.1,-,N/A,,Overcast,190,2012-12-04 02:53:00
9:53 PM,63.0,52.0,67,30.03,10.0,South,12.7,-,N/A,,Overcast,180,2012-12-04 03:53:00
10:53 PM,62.1,50.0,65,30.02,10.0,South,17.3,-,N/A,,Clear,180,2012-12-04 04:53:00